createdAt,value
2022-10-05T10:30:19.011Z,53.43
2022-10-05T10:31:47.905Z,57.16
2022-10-05T10:33:22.417Z,53.42
2022-10-05T10:34:50.143Z,53.51
2022-10-05T10:36:01.601Z,56.75
2022-10-05T10:37:36.281Z,52.12
2022-10-05T10:38:58.549Z,57.62
2022-10-05T10:40:21.288Z,59.91
2022-10-05T10:42:01.360Z,57.11
2022-10-05T10:43:41.178Z,58.65
2022-10-05T10:45:10.435Z,54.26
2022-10-05T10:46:28.110Z,55.87
2022-10-05T10:47:49.895Z,54.08
2022-10-05T10:49:17.017Z,54.11
2022-10-05T10:50:35.498Z,53.68
2022-10-05T10:52:13.290Z,57.23
2022-10-05T10:53:34.415Z,54.85
2022-10-05T10:55:16.942Z,58.77
2022-10-05T10:56:32.044Z,54.77
2022-10-05T10:57:51.320Z,57.33
2022-10-05T10:59:25.559Z,55.03
2022-10-05T11:00:55.192Z,58.45
2022-10-05T11:02:38.916Z,55.44
2022-10-05T11:04:16.368Z,57.19
2022-10-05T11:05:33.908Z,58.96
2022-10-05T11:07:08.618Z,56.27
2022-10-05T11:08:58.580Z,58.42
2022-10-05T11:10:19.905Z,52.73
2022-10-05T11:11:52.498Z,56.18
2022-10-05T11:13:27.477Z,55.17
2022-10-05T11:14:48.256Z,57.65
2022-10-05T11:16:27.309Z,57.35
2022-10-05T11:17:59.600Z,52.62
2022-10-05T11:19:35.107Z,53.71
2022-10-05T11:21:08.151Z,55.41
2022-10-05T11:22:32.487Z,53.16
2022-10-05T11:24:06.486Z,56.42
2022-10-05T11:25:29.278Z,52.22
2022-10-05T11:26:56.469Z,51.63
2022-10-05T11:28:17.880Z,52.05
2022-10-05T11:31:01.842Z,55.39
2022-10-05T11:32:36.942Z,57.53
2022-10-05T11:34:10.601Z,59.66
2022-10-05T11:35:52.341Z,59.19
2022-10-05T11:37:18.768Z,62.77
2022-10-05T11:38:51.335Z,55.52
2022-10-05T11:40:29.558Z,56.50
2022-10-05T11:42:04.674Z,56.19
2022-10-05T11:43:41.828Z,55.55
2022-10-05T11:45:16.289Z,52.21
2022-10-05T11:46:30.732Z,51.52
2022-10-05T11:47:52.146Z,54.52
2022-10-05T11:49:19.557Z,51.63
2022-10-05T11:50:30.538Z,53.92
2022-10-05T11:51:48.438Z,55.68
2022-10-05T11:52:59.121Z,56.87
2022-10-05T11:54:23.447Z,52.19
2022-10-05T11:55:32.864Z,49.83
2022-10-05T11:56:40.153Z,49.99
2022-10-05T11:57:51.465Z,51.11
2022-10-05T11:58:58.519Z,53.09
2022-10-05T12:00:14.681Z,51.25
2022-10-05T12:01:28.723Z,48.02
2022-10-05T12:02:59.427Z,46.89
2022-10-05T12:04:16.476Z,46.02
2022-10-05T12:05:22.354Z,48.76
2022-10-05T12:06:53.957Z,46.79
2022-10-05T12:08:08.769Z,47.79
2022-10-05T12:09:29.724Z,47.03
2022-10-05T12:10:40.872Z,46.07
2022-10-05T12:11:58.558Z,48.11
2022-10-05T12:13:27.974Z,51.08
2022-10-05T12:14:44.137Z,46.25
2022-10-05T12:15:53.427Z,46.16
2022-10-05T12:17:03.467Z,47.54
2022-10-05T12:18:14.014Z,43.73
2022-10-05T12:19:28.391Z,43.26
2022-10-05T12:20:41.225Z,41.37
2022-10-05T12:21:52.884Z,42.48
2022-10-05T12:22:58.918Z,46.50
2022-10-05T12:24:11.313Z,44.66
2022-10-05T12:25:28.484Z,46.95
2022-10-05T12:26:38.044Z,46.54
2022-10-05T12:27:44.126Z,43.43
2022-10-05T12:28:52.955Z,42.62
2022-10-05T12:30:03.641Z,40.64
2022-10-05T12:31:23.640Z,42.51
2022-10-05T12:32:36.401Z,40.99
2022-10-05T12:33:46.389Z,42.58
2022-10-05T12:35:01.870Z,43.67
2022-10-05T12:36:13.180Z,42.71
2022-10-05T12:37:40.208Z,44.21
2022-10-05T12:38:51.859Z,46.30
2022-10-05T12:39:57.024Z,43.73
2022-10-05T12:41:11.148Z,46.02
2022-10-05T12:42:26.168Z,42.89
2022-10-05T12:43:41.273Z,40.70
2022-10-05T12:45:15.403Z,39.25
2022-10-05T12:46:33.893Z,38.42
2022-10-05T12:47:53.927Z,41.13
2022-10-05T12:49:25.592Z,40.87
2022-10-05T12:50:35.044Z,40.49
2022-10-05T12:51:42.361Z,41.50
2022-10-05T12:53:04.332Z,44.04
2022-10-05T12:54:18.646Z,41.30
2022-10-05T12:55:26.329Z,44.20
2022-10-05T12:56:45.504Z,43.16
2022-10-05T12:58:00.877Z,41.17
2022-10-05T12:59:14.425Z,40.79
2022-10-05T13:00:23.156Z,44.03
2022-10-05T13:01:39.641Z,44.70
2022-10-05T13:02:49.221Z,40.46
2022-10-05T13:03:58.882Z,41.31
2022-10-05T13:05:21.358Z,41.72
2022-10-05T13:06:32.920Z,43.26
2022-10-05T13:07:50.584Z,42.22
2022-10-05T13:09:06.590Z,41.08
2022-10-05T13:10:21.207Z,41.07
2022-10-05T13:11:35.257Z,40.11
2022-10-05T13:12:51.237Z,38.89
2022-10-05T13:14:02.505Z,37.18
2022-10-05T13:15:18.198Z,35.41
2022-10-05T13:16:31.563Z,36.78
2022-10-05T13:17:42.371Z,36.36
2022-10-05T13:18:59.122Z,36.71
2022-10-05T13:20:14.802Z,36.15
2022-10-05T13:21:24.904Z,36.16
2022-10-05T13:22:37.473Z,34.90
2022-10-05T13:23:57.137Z,35.84
2022-10-05T13:25:19.776Z,36.91
2022-10-05T13:26:28.208Z,35.02
2022-10-05T13:27:38.184Z,34.04
2022-10-05T13:28:47.660Z,35.70
2022-10-05T13:29:55.963Z,37.47
2022-10-05T13:31:07.889Z,40.78
2022-10-05T13:32:16.566Z,40.15
2022-10-05T13:33:29.586Z,39.76
2022-10-05T13:34:40.324Z,39.25
2022-10-05T13:35:52.829Z,38.13
2022-10-05T13:37:08.673Z,36.10
2022-10-05T13:38:23.645Z,35.61
2022-10-05T13:39:39.347Z,36.19
2022-10-05T13:40:51.273Z,34.78
2022-10-05T13:42:00.127Z,36.63
2022-10-05T13:43:19.161Z,37.29
2022-10-05T13:44:32.606Z,38.35
2022-10-05T13:45:45.773Z,34.67
2022-10-05T13:46:50.179Z,36.73
2022-10-05T13:48:11.906Z,38.14
2022-10-05T13:49:26.626Z,36.79
2022-10-05T13:50:34.135Z,37.14
2022-10-05T13:51:46.886Z,35.84
2022-10-05T13:52:56.547Z,35.68
2022-10-05T13:54:07.561Z,32.89
2022-10-05T13:55:23.853Z,33.61
2022-10-05T13:56:30.738Z,32.34
2022-10-05T13:57:48.341Z,33.57
2022-10-05T13:59:01.333Z,36.27
2022-10-05T14:00:13.925Z,33.23
2022-10-05T14:01:25.148Z,35.84
2022-10-05T14:02:30.492Z,36.83
2022-10-05T14:03:37.590Z,39.47
2022-10-05T14:04:47.059Z,38.12
2022-10-05T14:05:57.778Z,35.92
2022-10-05T14:07:23.403Z,32.74
2022-10-05T14:08:34.690Z,32.61
2022-10-05T14:09:37.128Z,33.08
2022-10-05T14:10:44.147Z,34.44
2022-10-05T14:11:53.556Z,34.16
2022-10-05T14:12:58.255Z,34.92
2022-10-05T14:14:15.253Z,33.62
2022-10-05T14:15:21.473Z,34.91
2022-10-05T14:16:28.174Z,34.75
2022-10-05T14:17:43.903Z,35.06
2022-10-05T14:18:58.565Z,34.76
2022-10-05T14:20:03.044Z,35.31
2022-10-05T14:21:22.293Z,34.16
2022-10-05T14:22:27.631Z,34.89
2022-10-05T14:23:32.499Z,35.14
2022-10-05T14:24:45.024Z,34.40
2022-10-05T14:25:54.200Z,34.11
2022-10-05T14:26:58.773Z,34.82
2022-10-05T14:28:06.387Z,34.48
2022-10-05T14:29:19.130Z,34.46
2022-10-05T14:30:25.835Z,35.30
2022-10-05T14:31:31.329Z,35.14
2022-10-05T14:32:50.464Z,35.04
2022-10-05T14:33:52.670Z,36.46
2022-10-05T14:35:15.761Z,35.66
2022-10-05T14:36:35.149Z,32.97
2022-10-05T14:37:53.386Z,34.60
2022-10-05T14:38:57.918Z,34.21
2022-10-05T14:40:23.554Z,32.84
2022-10-05T14:41:28.532Z,35.58
2022-10-05T14:42:47.274Z,35.00
2022-10-05T14:43:51.684Z,36.96
2022-10-05T14:45:02.843Z,37.87
2022-10-05T14:46:27.190Z,39.13
2022-10-05T14:47:39.710Z,36.58
2022-10-05T14:48:42.499Z,38.15
2022-10-05T14:50:10.799Z,39.37
2022-10-05T14:51:31.929Z,39.62
2022-10-05T14:52:34.857Z,38.04
2022-10-05T14:53:58.780Z,40.84
2022-10-05T14:55:08.690Z,38.96
2022-10-05T14:56:36.873Z,40.83
2022-10-05T14:57:49.908Z,36.09
2022-10-05T14:59:22.346Z,36.19
2022-10-05T15:00:26.135Z,34.94
2022-10-05T15:01:35.197Z,34.88
2022-10-05T15:03:21.554Z,32.77
2022-10-05T15:04:34.477Z,32.28
2022-10-05T15:05:47.712Z,32.97
2022-10-05T15:07:03.845Z,37.42
2022-10-05T15:08:21.087Z,38.91
2022-10-05T15:09:42.390Z,38.97
2022-10-05T15:10:51.131Z,38.26
2022-10-05T15:11:59.283Z,36.86
2022-10-05T15:13:15.229Z,35.32
2022-10-05T15:14:24.751Z,34.85
2022-10-05T15:15:34.582Z,34.37
2022-10-05T15:16:42.208Z,36.16
2022-10-05T15:17:52.582Z,37.02
2022-10-05T15:19:05.646Z,37.97
2022-10-05T15:20:24.631Z,38.04
2022-10-05T15:21:43.944Z,36.81
2022-10-05T15:22:55.955Z,37.71
2022-10-05T15:24:02.907Z,37.71
2022-10-05T15:25:17.712Z,38.93
2022-10-05T15:26:33.377Z,37.82
2022-10-05T15:28:04.209Z,40.65
2022-10-05T15:29:20.518Z,41.60
2022-10-05T15:30:24.634Z,39.93
2022-10-05T15:31:39.497Z,40.92
2022-10-05T15:32:59.828Z,44.23
2022-10-05T15:34:08.106Z,43.57
2022-10-05T15:35:37.349Z,44.80
2022-10-05T15:36:48.234Z,45.59
2022-10-05T15:37:55.483Z,43.53
2022-10-05T15:39:08.404Z,41.94
2022-10-05T15:40:27.072Z,42.58
2022-10-05T15:41:53.208Z,40.93
2022-10-05T15:43:01.810Z,39.19
2022-10-05T15:44:18.422Z,39.04
2022-10-05T15:45:29.960Z,39.48
2022-10-05T15:46:37.247Z,39.57
2022-10-05T15:47:52.405Z,40.00
2022-10-05T15:49:08.582Z,39.12
2022-10-05T15:50:22.517Z,38.44
2022-10-05T15:51:42.417Z,37.28
2022-10-05T15:52:51.317Z,36.13
2022-10-05T15:54:16.546Z,37.21
2022-10-05T15:55:32.726Z,36.94
2022-10-05T15:56:38.719Z,35.95
2022-10-05T15:57:51.891Z,34.86
2022-10-05T15:58:55.624Z,32.80
2022-10-05T16:00:04.688Z,34.57
2022-10-05T16:01:11.934Z,34.75
2022-10-05T16:02:22.713Z,35.85
2022-10-05T16:03:38.295Z,36.46
2022-10-05T16:04:48.181Z,36.71
2022-10-05T16:06:09.000Z,36.82
2022-10-05T16:07:32.043Z,38.23
2022-10-05T16:08:54.351Z,37.94
2022-10-05T16:10:11.811Z,39.23
2022-10-05T16:11:36.785Z,40.60
2022-10-05T16:12:50.927Z,42.96
2022-10-05T16:14:05.387Z,45.25
2022-10-05T16:15:26.581Z,44.75
2022-10-05T16:16:38.154Z,46.27
2022-10-05T16:18:12.240Z,46.62
2022-10-05T16:19:22.199Z,46.62
2022-10-05T16:20:45.919Z,47.51
2022-10-05T16:21:56.765Z,48.27
2022-10-05T16:23:08.096Z,49.58
2022-10-05T16:24:24.705Z,49.71
2022-10-05T16:25:35.340Z,51.28
2022-10-05T16:26:58.672Z,50.45
2022-10-05T16:28:10.985Z,51.02
2022-10-05T16:29:25.028Z,52.58
2022-10-05T16:30:40.384Z,53.51
2022-10-05T16:31:56.943Z,55.62
2022-10-05T16:33:08.249Z,58.24
2022-10-05T16:34:23.368Z,58.02
2022-10-05T16:35:38.511Z,56.89
2022-10-05T16:36:55.951Z,57.88
2022-10-05T16:38:08.123Z,59.63
2022-10-05T16:39:18.723Z,61.83
2022-10-05T16:40:31.016Z,63.86
2022-10-05T16:41:39.098Z,64.16
2022-10-05T16:42:57.968Z,67.20
2022-10-05T16:44:13.041Z,68.24
2022-10-05T16:45:30.062Z,68.67
2022-10-05T16:46:42.544Z,68.38
2022-10-05T16:47:50.658Z,66.63
2022-10-05T16:49:04.152Z,67.10
2022-10-05T16:50:27.750Z,68.36
2022-10-05T16:51:40.693Z,69.99
2022-10-05T16:52:47.258Z,69.60
2022-10-05T16:54:01.334Z,70.86
2022-10-05T16:55:13.407Z,70.67
2022-10-05T16:56:21.288Z,71.21
2022-10-05T16:57:28.361Z,71.99
2022-10-05T16:58:47.890Z,72.34
2022-10-05T17:00:15.535Z,73.08
2022-10-05T17:01:42.224Z,71.85
2022-10-05T17:03:08.286Z,70.96
2022-10-05T17:04:31.584Z,71.60
2022-10-05T17:05:55.180Z,75.20
2022-10-05T17:07:14.404Z,72.69
2022-10-05T17:08:36.756Z,73.18
2022-10-05T17:10:05.936Z,69.98
2022-10-05T17:11:19.299Z,67.63
2022-10-05T17:12:42.431Z,69.47
2022-10-05T17:14:08.189Z,65.14
2022-10-05T17:15:29.704Z,66.01
2022-10-05T17:16:48.192Z,65.96
2022-10-05T17:18:04.030Z,63.68
2022-10-05T17:19:16.599Z,63.67
2022-10-05T17:20:42.440Z,61.59
2022-10-05T17:21:50.155Z,62.00
2022-10-05T17:22:59.289Z,60.55
2022-10-05T17:24:15.477Z,61.12
2022-10-05T17:25:25.290Z,62.96
2022-10-05T17:26:52.831Z,60.92
2022-10-05T17:28:00.294Z,60.81
2022-10-05T17:29:16.647Z,61.77
2022-10-05T17:30:37.771Z,62.28
2022-10-05T17:32:02.056Z,61.86
2022-10-05T17:33:22.489Z,60.94
2022-10-05T17:34:29.242Z,59.78
2022-10-05T17:36:00.979Z,60.69
2022-10-05T17:37:17.981Z,61.08
2022-10-05T17:38:25.114Z,60.80
2022-10-05T17:39:46.813Z,61.38
2022-10-05T17:41:18.380Z,61.44
2022-10-05T17:42:51.740Z,62.99
2022-10-05T17:44:27.208Z,63.40
2022-10-05T17:45:54.365Z,66.19
2022-10-05T17:47:00.844Z,65.75
2022-10-05T17:48:05.392Z,67.01
2022-10-05T17:49:23.316Z,67.40
2022-10-05T17:50:54.506Z,67.50
2022-10-05T17:52:14.238Z,68.17
2022-10-05T17:53:50.019Z,71.55
2022-10-05T17:55:30.164Z,69.05
2022-10-05T17:56:56.044Z,70.53
2022-10-05T17:58:00.775Z,70.58
2022-10-05T17:59:07.494Z,70.91
2022-10-05T18:00:32.474Z,69.21
2022-10-05T18:01:42.226Z,70.34
2022-10-05T18:02:44.321Z,69.08
2022-10-05T18:03:51.836Z,69.38
2022-10-05T18:05:05.424Z,70.46
2022-10-05T18:06:32.387Z,70.93
2022-10-05T18:07:38.357Z,71.54
2022-10-05T18:08:41.507Z,72.96
2022-10-05T18:10:22.152Z,72.22
2022-10-05T18:11:40.636Z,75.10
2022-10-05T18:12:50.584Z,75.80
2022-10-05T18:14:16.104Z,75.75
2022-10-05T18:15:49.357Z,76.01
2022-10-05T18:17:02.514Z,76.79
2022-10-05T18:18:38.710Z,78.26
2022-10-05T18:19:41.594Z,81.70
2022-10-05T18:21:18.474Z,82.36
2022-10-05T18:22:30.969Z,81.33
2022-10-05T18:23:36.223Z,82.11
2022-10-05T18:25:06.399Z,83.89
2022-10-05T18:26:26.555Z,84.12
2022-10-05T18:28:07.075Z,85.79
2022-10-05T18:29:39.192Z,83.21
2022-10-05T18:31:02.239Z,83.71
2022-10-05T18:32:14.101Z,85.22
2022-10-05T18:33:50.032Z,84.92
2022-10-05T18:35:02.192Z,85.48
2022-10-05T18:36:22.217Z,85.94
